Time;durP1;ratioP1;P1;durP2;ratioP2;P2;SDS_P1;SDS_P2;PMS_P1;PMS_P2;Temp;Humidity;BMP_temperature;BMP_pressure;BME280_temperature;BME280_humidity;BME280_pressure;Samples;Min_cycle;Max_cycle;Signal;HPM_P1;HPM_P2
2023/01/09 00:01:22;;;;;;;5.18;2.13;;;9.70;95.80;;;;;;5063801;28;20025;-80
2023/01/09 00:03:48;;;;;;;5.45;2.30;;;9.70;96.20;;;;;;5041082;28;20021;-81
2023/01/09 00:06:14;;;;;;;7.30;1.98;;;9.60;96.30;;;;;;5058395;28;20016;-81
2023/01/09 00:08:41;;;;;;;3.90;1.40;;;9.60;96.60;;;;;;5056558;28;20101;-81
2023/01/09 00:11:06;;;;;;;5.07;1.92;;;9.60;96.20;;;;;;5052443;28;20020;-81
2023/01/09 00:13:33;;;;;;;8.27;3.05;;;9.50;96.30;;;;;;5054420;28;20020;-80
2023/01/09 00:15:59;;;;;;;5.90;1.60;;;9.50;96.20;;;;;;5027223;28;20053;-80
2023/01/09 00:18:26;;;;;;;4.07;1.40;;;9.50;96.10;;;;;;5047606;28;20063;-80
2023/01/09 00:20:51;;;;;;;2.70;1.20;;;9.50;96.00;;;;;;5036398;28;20033;-79
2023/01/09 00:23:17;;;;;;;3.13;1.13;;;9.50;96.00;;;;;;5066963;28;20028;-79
2023/01/09 00:25:42;;;;;;;2.63;0.90;;;9.50;95.80;;;;;;5037091;28;20080;-79
2023/01/09 00:28:08;;;;;;;3.63;1.00;;;9.40;95.70;;;;;;5060582;28;20079;-80
2023/01/09 00:30:34;;;;;;;3.72;1.20;;;9.40;95.60;;;;;;5068306;28;20036;-79
2023/01/09 00:32:59;;;;;;;1.75;0.70;;;9.40;95.50;;;;;;5056084;28;20017;-80
2023/01/09 00:35:27;;;;;;;4.78;1.50;;;9.40;95.50;;;;;;5046070;28;20100;-79
2023/01/09 00:37:53;;;;;;;3.33;1.08;;;9.40;95.40;;;;;;5035543;28;20234;-80
2023/01/09 00:40:19;;;;;;;3.70;0.93;;;9.30;95.30;;;;;;5063548;28;20094;-78
2023/01/09 00:42:52;;;;;;;2.60;0.80;;;9.30;95.30;;;;;;5064407;28;20025;-78
2023/01/09 00:45:27;;;;;;;2.92;0.88;;;9.20;95.10;;;;;;5040482;28;20071;-80
2023/01/09 00:47:56;;;;;;;2.22;1.00;;;9.10;95.20;;;;;;5036866;28;20016;-79
2023/01/09 00:50:26;;;;;;;2.25;0.70;;;9.10;95.10;;;;;;5060692;28;20491;-80
2023/01/09 00:52:56;;;;;;;2.70;1.20;;;9.00;95.00;;;;;;5049066;28;20470;-79
2023/01/09 00:55:22;;;;;;;3.15;1.00;;;9.00;95.00;;;;;;5065721;28;20032;-79
2023/01/09 00:57:48;;;;;;;2.17;0.77;;;9.00;95.00;;;;;;5052466;28;20015;-79
2023/01/09 01:00:16;;;;;;;1.00;0.60;;;8.90;95.00;;;;;;5063817;28;20056;-81
2023/01/09 01:02:41;;;;;;;4.72;1.10;;;8.90;95.00;;;;;;5035352;28;20020;-78
2023/01/09 01:07:51;;;;;;;2.75;1.02;;;8.80;95.00;;;;;;5056458;28;20054;-81
2023/01/09 01:10:20;;;;;;;2.45;0.70;;;8.80;95.00;;;;;;5066833;28;20111;-80
2023/01/09 01:12:47;;;;;;;2.53;0.80;;;8.80;95.00;;;;;;5043202;28;20063;-79
2023/01/09 01:15:15;;;;;;;2.00;0.70;;;8.70;95.00;;;;;;5066328;28;20029;-79
2023/01/09 01:17:45;;;;;;;2.80;0.85;;;8.70;95.00;;;;;;5046844;28;20022;-78
2023/01/09 01:20:16;;;;;;;2.88;0.85;;;8.70;95.20;;;;;;5064097;28;20045;-79
2023/01/09 01:22:43;;;;;;;5.55;1.55;;;8.60;95.20;;;;;;5066571;28;20159;-79
2023/01/09 01:25:10;;;;;;;1.50;0.80;;;8.60;95.30;;;;;;5046660;28;20071;-79
2023/01/09 01:27:37;;;;;;;3.17;1.00;;;8.50;95.40;;;;;;5047074;28;20049;-79
2023/01/09 01:30:04;;;;;;;2.85;0.90;;;8.50;95.60;;;;;;5062422;28;20040;-79
2023/01/09 01:32:37;;;;;;;3.55;1.30;;;8.40;95.70;;;;;;5052640;28;20440;-77
2023/01/09 01:35:05;;;;;;;2.03;0.80;;;8.40;95.70;;;;;;5059514;28;20096;-78
2023/01/09 01:37:33;;;;;;;2.92;1.52;;;8.40;95.80;;;;;;5058693;28;20021;-80
2023/01/09 01:40:03;;;;;;;3.65;1.17;;;8.30;95.80;;;;;;5029627;28;20030;-80
2023/01/09 01:42:30;;;;;;;5.00;1.90;;;8.30;95.90;;;;;;5051140;28;20037;-79
2023/01/09 01:45:06;;;;;;;3.22;1.30;;;8.40;95.90;;;;;;5065286;28;20033;-79
2023/01/09 01:47:51;;;;;;;3.22;1.40;;;8.30;96.00;;;;;;5065941;28;20021;-78
2023/01/09 01:50:28;;;;;;;7.55;1.40;;;8.30;96.00;;;;;;5034041;28;20029;-79
2023/01/09 01:53:17;;;;;;;3.92;1.40;;;8.20;96.10;;;;;;5052269;28;20029;-79
2023/01/09 01:55:54;;;;;;;3.15;1.63;;;8.20;96.20;;;;;;5046191;28;20022;-81
2023/01/09 01:58:20;;;;;;;5.38;1.65;;;8.20;96.20;;;;;;5058759;28;20032;-79
2023/01/09 02:00:46;;;;;;;3.72;1.70;;;8.10;96.40;;;;;;5061276;28;20021;-79
2023/01/09 02:03:16;;;;;;;4.45;1.55;;;8.10;96.50;;;;;;5050862;28;20021;-78
2023/01/09 02:05:42;;;;;;;5.78;2.13;;;8.10;96.40;;;;;;5059454;28;20021;-79
2023/01/09 02:08:10;;;;;;;6.57;2.10;;;8.10;96.50;;;;;;5067819;28;20059;-78
2023/01/09 02:10:38;;;;;;;5.57;1.80;;;8.10;96.50;;;;;;5059601;28;20017;-79
2023/01/09 02:13:05;;;;;;;5.88;2.05;;;8.10;96.40;;;;;;5052107;28;20036;-78
2023/01/09 02:15:58;;;;;;;3.05;1.65;;;8.00;96.40;;;;;;5058889;28;20482;-77
2023/01/09 02:18:44;;;;;;;5.50;2.10;;;8.00;96.40;;;;;;5033778;28;20312;-79
2023/01/09 02:21:26;;;;;;;4.30;1.70;;;7.90;96.60;;;;;;5045514;28;20124;-78
2023/01/09 02:23:52;;;;;;;4.00;1.70;;;7.90;96.80;;;;;;5058284;28;20048;-78
2023/01/09 02:27:02;;;;;;;4.80;1.70;;;7.90;96.70;;;;;;5042898;28;20048;-79
2023/01/09 02:29:41;;;;;;;4.88;1.65;;;7.80;96.80;;;;;;5066568;28;20126;-79
2023/01/09 02:32:24;;;;;;;3.95;1.90;;;7.80;96.80;;;;;;5059371;28;20032;-79
2023/01/09 02:35:24;;;;;;;4.13;1.85;;;7.80;96.90;;;;;;5037432;28;20036;-79
2023/01/09 02:38:26;;;;;;;5.83;1.93;;;7.80;97.00;;;;;;5076736;28;20043;-79
2023/01/09 02:41:03;;;;;;;8.43;2.03;;;7.80;97.00;;;;;;5061210;28;20551;-79
2023/01/09 02:43:30;;;;;;;6.20;2.22;;;7.80;97.00;;;;;;5051773;28;20032;-79
2023/01/09 02:45:58;;;;;;;4.82;1.90;;;7.90;97.00;;;;;;5054456;28;20119;-79
2023/01/09 02:48:24;;;;;;;4.72;1.90;;;7.90;97.00;;;;;;5054584;28;20025;-80
2023/01/09 02:51:10;;;;;;;7.18;2.72;;;7.70;97.10;;;;;;5048464;28;20570;-80
2023/01/09 02:54:00;;;;;;;6.85;1.75;;;7.80;97.10;;;;;;5068445;28;20028;-79
2023/01/09 02:56:46;;;;;;;6.60;2.78;;;7.70;97.20;;;;;;5044303;28;20013;-78
2023/01/09 02:59:26;;;;;;;4.53;1.73;;;7.60;97.50;;;;;;5065270;28;20040;-79
2023/01/09 03:02:20;;;;;;;6.65;2.28;;;7.60;97.40;;;;;;5058158;28;20024;-79
2023/01/09 03:05:20;;;;;;;4.72;1.90;;;7.60;97.40;;;;;;5041708;28;20041;-79
2023/01/09 03:07:49;;;;;;;;;;;7.60;97.40;;;;;;5053328;28;20094;-80
2023/01/09 03:10:17;;;;;;;10.50;3.00;;;7.60;97.50;;;;;;5071560;28;19912;-80
2023/01/09 03:12:45;;;;;;;4.75;1.70;;;7.60;97.30;;;;;;5052840;28;20039;-79
2023/01/09 03:15:14;;;;;;;5.70;2.00;;;7.70;97.30;;;;;;5024439;28;20092;-80
2023/01/09 03:17:45;;;;;;;7.60;2.28;;;7.60;97.30;;;;;;5030213;28;20021;-80
2023/01/09 03:20:14;;;;;;;4.63;2.58;;;7.70;97.40;;;;;;5060305;28;20121;-79
2023/01/09 03:22:51;;;;;;;5.65;2.05;;;7.60;97.40;;;;;;5066998;28;20055;-79
2023/01/09 03:25:17;;;;;;;5.60;2.13;;;7.60;97.50;;;;;;5070643;28;20021;-81
2023/01/09 03:27:43;;;;;;;5.60;2.60;;;7.60;97.40;;;;;;5048969;28;20120;-79
2023/01/09 03:30:09;;;;;;;5.40;2.35;;;7.60;97.30;;;;;;5057953;28;20025;-80
2023/01/09 03:32:34;;;;;;;11.40;2.45;;;7.70;97.30;;;;;;5044699;28;20387;-78
2023/01/09 03:35:01;;;;;;;8.52;2.90;;;7.60;97.30;;;;;;5072055;28;20044;-79
2023/01/09 03:37:26;;;;;;;6.13;1.80;;;7.60;97.30;;;;;;5058501;28;20032;-78
2023/01/09 03:39:52;;;;;;;4.85;2.10;;;7.60;97.20;;;;;;5044248;28;20028;-78
2023/01/09 03:42:18;;;;;;;6.05;2.42;;;7.60;97.10;;;;;;5049156;28;20115;-79
2023/01/09 03:44:43;;;;;;;10.10;3.75;;;7.70;97.10;;;;;;5048959;28;20399;-80
2023/01/09 03:47:09;;;;;;;8.82;3.38;;;7.70;97.00;;;;;;5040144;28;20087;-79
2023/01/09 03:49:34;;;;;;;8.88;4.40;;;7.70;97.00;;;;;;5048815;28;20396;-79
2023/01/09 03:52:00;;;;;;;9.88;3.65;;;7.60;97.00;;;;;;5038453;28;20028;-79
2023/01/09 03:54:25;;;;;;;12.70;4.60;;;7.60;97.00;;;;;;5046879;28;20021;-79
2023/01/09 03:56:51;;;;;;;7.53;3.00;;;7.60;97.00;;;;;;5062575;28;20029;-78
2023/01/09 03:59:17;;;;;;;9.75;3.45;;;7.60;96.90;;;;;;5046369;28;20115;-78
2023/01/09 04:01:44;;;;;;;11.10;2.88;;;7.60;96.90;;;;;;5063052;28;20037;-78
2023/01/09 04:04:09;;;;;;;10.98;2.67;;;7.50;96.90;;;;;;5049065;28;20021;-78
2023/01/09 04:06:35;;;;;;;8.63;2.63;;;7.50;97.10;;;;;;5054230;28;20028;-79
2023/01/09 04:09:02;;;;;;;7.32;2.55;;;7.50;97.00;;;;;;5051573;28;20025;-78
2023/01/09 04:11:28;;;;;;;7.97;2.55;;;7.50;97.10;;;;;;5041672;28;20111;-78
2023/01/09 04:13:53;;;;;;;5.50;2.17;;;7.50;97.10;;;;;;5033534;28;20164;-78
2023/01/09 04:16:19;;;;;;;8.05;2.20;;;7.50;97.20;;;;;;5061192;28;20021;-79
2023/01/09 04:18:45;;;;;;;6.13;2.30;;;7.40;97.20;;;;;;5038201;28;20033;-80
2023/01/09 04:21:10;;;;;;;8.18;2.72;;;7.40;97.50;;;;;;5063359;28;20048;-79
2023/01/09 04:23:36;;;;;;;8.48;2.28;;;7.40;97.20;;;;;;5013284;28;20017;-78
2023/01/09 04:26:02;;;;;;;6.38;2.00;;;7.30;97.30;;;;;;5047842;28;20053;-79
2023/01/09 04:28:27;;;;;;;6.03;1.85;;;7.30;97.30;;;;;;5038551;28;20044;-79
2023/01/09 04:30:53;;;;;;;6.28;1.55;;;7.30;97.40;;;;;;5042416;28;20025;-79
2023/01/09 04:33:19;;;;;;;8.18;2.15;;;7.20;97.50;;;;;;5015242;28;20104;-79
2023/01/09 04:35:44;;;;;;;5.15;1.90;;;7.20;97.60;;;;;;5056920;28;20033;-79
2023/01/09 04:38:10;;;;;;;7.68;2.28;;;7.20;97.60;;;;;;5072800;28;20025;-79
2023/01/09 04:40:36;;;;;;;5.65;2.17;;;7.20;97.90;;;;;;5067805;28;20025;-79
2023/01/09 04:43:02;;;;;;;6.65;2.20;;;7.30;97.60;;;;;;5054180;28;20022;-78
2023/01/09 04:45:28;;;;;;;10.52;2.50;;;7.20;97.60;;;;;;5044143;28;20021;-80
2023/01/09 04:47:53;;;;;;;7.18;1.80;;;7.20;97.60;;;;;;5065022;28;20101;-80
2023/01/09 04:50:20;;;;;;;7.22;2.30;;;7.30;97.80;;;;;;5038119;28;20026;-80
2023/01/09 04:52:46;;;;;;;6.30;2.05;;;7.20;97.70;;;;;;5052921;28;20017;-79
2023/01/09 04:55:11;;;;;;;6.80;2.67;;;7.20;97.70;;;;;;5049575;28;20032;-79
2023/01/09 04:57:37;;;;;;;9.15;2.70;;;7.30;97.80;;;;;;5070182;28;20112;-79
2023/01/09 05:00:08;;;;;;;8.73;2.60;;;7.20;97.70;;;;;;5050891;28;20051;-80
2023/01/09 05:02:34;;;;;;;7.63;2.58;;;7.30;97.90;;;;;;5062397;28;20021;-79
2023/01/09 05:05:00;;;;;;;9.40;2.72;;;7.30;97.70;;;;;;5069476;28;20024;-79
2023/01/09 05:07:26;;;;;;;13.80;2.72;;;7.30;97.70;;;;;;5035888;28;20123;-79
2023/01/09 05:09:52;;;;;;;13.85;3.50;;;7.40;97.70;;;;;;5067564;28;20033;-79
2023/01/09 05:12:18;;;;;;;8.95;2.47;;;7.40;97.80;;;;;;5059772;28;20104;-79
2023/01/09 05:14:43;;;;;;;6.63;3.03;;;7.40;97.70;;;;;;5038543;28;20056;-79
2023/01/09 05:17:09;;;;;;;10.38;2.75;;;7.40;97.60;;;;;;5052603;28;20021;-80
2023/01/09 05:19:34;;;;;;;11.40;1.95;;;7.40;97.60;;;;;;5043158;28;20060;-79
2023/01/09 05:22:00;;;;;;;9.20;2.50;;;7.50;97.80;;;;;;5054178;28;20108;-78
2023/01/09 05:24:27;;;;;;;6.78;1.92;;;7.40;97.50;;;;;;5053659;28;20025;-80
2023/01/09 05:26:52;;;;;;;5.47;2.30;;;7.50;97.50;;;;;;5040970;28;20052;-78
2023/01/09 05:29:19;;;;;;;6.70;2.42;;;7.50;97.50;;;;;;5042544;28;20277;-79
2023/01/09 05:31:44;;;;;;;7.50;2.35;;;7.50;97.60;;;;;;5060294;28;20020;-79
2023/01/09 05:34:10;;;;;;;6.72;2.10;;;7.40;97.40;;;;;;5061961;28;20024;-79
2023/01/09 05:36:36;;;;;;;7.97;2.30;;;7.40;97.40;;;;;;5040293;28;20029;-79
2023/01/09 05:39:02;;;;;;;10.32;3.03;;;7.50;97.60;;;;;;5050577;28;20030;-78
2023/01/09 05:41:28;;;;;;;5.00;1.60;;;7.50;97.40;;;;;;5035994;28;20463;-79
2023/01/09 05:43:55;;;;;;;6.65;1.77;;;7.50;97.40;;;;;;5067828;28;20439;-79
2023/01/09 05:46:21;;;;;;;8.50;3.10;;;7.50;97.50;;;;;;5044031;28;20037;-79
2023/01/09 05:48:48;;;;;;;8.80;2.47;;;7.60;97.50;;;;;;5045343;28;20387;-80
2023/01/09 05:51:13;;;;;;;8.73;1.65;;;7.50;97.30;;;;;;5050630;28;20017;-78
2023/01/09 05:53:39;;;;;;;4.97;1.95;;;7.60;97.30;;;;;;5043265;28;20648;-79
2023/01/09 05:56:05;;;;;;;10.43;2.55;;;7.60;97.30;;;;;;5041683;28;20462;-79
2023/01/09 05:58:30;;;;;;;8.30;1.50;;;7.60;97.30;;;;;;5049558;28;20029;-80
2023/01/09 06:00:57;;;;;;;7.10;2.20;;;7.60;97.40;;;;;;5074902;28;20808;-79
2023/01/09 06:03:23;;;;;;;10.23;2.38;;;7.70;97.40;;;;;;5072251;28;20031;-79
2023/01/09 06:05:50;;;;;;;10.32;2.83;;;7.60;97.20;;;;;;5041933;28;20033;-79
2023/01/09 06:08:16;;;;;;;9.57;2.55;;;7.60;97.20;;;;;;5041829;28;20089;-79
2023/01/09 06:10:41;;;;;;;10.57;2.15;;;7.60;97.10;;;;;;5048715;28;20017;-80
2023/01/09 06:13:07;;;;;;;6.35;1.45;;;7.60;97.20;;;;;;5035988;28;20032;-79
2023/01/09 06:15:33;;;;;;;6.85;1.55;;;7.60;97.20;;;;;;5052158;28;20700;-79
2023/01/09 06:17:58;;;;;;;8.73;1.40;;;7.70;97.40;;;;;;5023994;28;20403;-79
2023/01/09 06:20:24;;;;;;;5.53;1.58;;;7.70;97.40;;;;;;5059459;28;20033;-80
2023/01/09 06:22:51;;;;;;;9.02;1.90;;;7.70;97.40;;;;;;5055129;28;20016;-79
2023/01/09 06:25:18;;;;;;;9.75;2.05;;;7.70;97.40;;;;;;5057630;28;20037;-79
2023/01/09 06:27:43;;;;;;;16.88;3.15;;;7.80;97.20;;;;;;5064950;28;20053;-80
2023/01/09 06:30:11;;;;;;;11.52;1.92;;;7.80;97.00;;;;;;5063551;28;20028;-79
2023/01/09 06:32:38;;;;;;;5.70;1.92;;;7.80;96.90;;;;;;5050259;28;20025;-79
2023/01/09 06:35:04;;;;;;;9.15;1.92;;;7.90;97.00;;;;;;5053395;28;20063;-80
2023/01/09 06:37:30;;;;;;;6.80;1.85;;;7.90;97.00;;;;;;5048794;28;20109;-79
2023/01/09 06:39:55;;;;;;;16.95;2.38;;;7.90;96.80;;;;;;5054246;28;20504;-80
2023/01/09 06:42:21;;;;;;;5.80;1.70;;;7.90;96.70;;;;;;5040475;28;20104;-78
2023/01/09 06:44:46;;;;;;;7.78;2.08;;;8.00;96.90;;;;;;5045648;28;20033;-78
2023/01/09 06:47:12;;;;;;;10.20;2.63;;;8.10;97.00;;;;;;5050453;28;20025;-79
2023/01/09 06:49:38;;;;;;;7.45;1.63;;;8.10;97.00;;;;;;5045445;28;20020;-79
2023/01/09 06:52:10;;;;;;;8.98;1.75;;;8.20;97.00;;;;;;5052662;28;20869;-79
2023/01/09 06:54:36;;;;;;;9.27;2.10;;;8.20;96.90;;;;;;5026729;28;20025;-80
2023/01/09 06:57:01;;;;;;;11.98;1.70;;;8.30;96.90;;;;;;5051765;28;20025;-79
2023/01/09 06:59:33;;;;;;;11.48;2.28;;;8.30;96.90;;;;;;5037948;28;20063;-80
2023/01/09 07:01:59;;;;;;;6.22;1.75;;;8.30;97.00;;;;;;5062153;28;20024;-80
2023/01/09 07:04:24;;;;;;;6.38;1.75;;;8.40;96.80;;;;;;5019127;28;20512;-80
2023/01/09 07:06:50;;;;;;;5.93;1.80;;;8.40;96.90;;;;;;5052740;28;20026;-81
2023/01/09 07:09:17;;;;;;;5.47;1.35;;;8.40;97.00;;;;;;5049914;28;20021;-79
2023/01/09 07:11:42;;;;;;;7.50;1.40;;;8.40;97.00;;;;;;5045444;28;20033;-81
2023/01/09 07:14:09;;;;;;;13.90;2.38;;;8.40;97.10;;;;;;5046847;28;20024;-79
2023/01/09 07:16:39;;;;;;;7.40;1.75;;;8.40;97.20;;;;;;5021320;28;20447;-83
2023/01/09 07:19:05;;;;;;;6.50;1.75;;;8.50;97.20;;;;;;5027604;28;20024;-79
2023/01/09 07:21:32;;;;;;;9.30;2.20;;;8.50;97.00;;;;;;5047525;28;20021;-79
2023/01/09 07:23:57;;;;;;;7.45;1.88;;;8.50;96.80;;;;;;5046337;28;20026;-81
2023/01/09 07:26:23;;;;;;;10.10;2.22;;;8.50;96.80;;;;;;5056394;28;20084;-80
2023/01/09 07:28:48;;;;;;;8.90;2.70;;;8.50;96.70;;;;;;5041303;28;20029;-79
2023/01/09 07:31:14;;;;;;;7.07;2.45;;;8.60;96.90;;;;;;5054300;28;20065;-79
2023/01/09 07:33:40;;;;;;;6.05;1.80;;;8.60;96.80;;;;;;5052767;28;20027;-80
2023/01/09 07:36:08;;;;;;;5.95;1.80;;;8.60;96.70;;;;;;5050193;28;20023;-79
2023/01/09 07:38:36;;;;;;;8.00;2.05;;;8.70;96.70;;;;;;5049694;28;20096;-79
2023/01/09 07:41:01;;;;;;;7.40;1.70;;;8.70;96.70;;;;;;5043411;28;20041;-79
2023/01/09 07:43:27;;;;;;;6.28;1.38;;;8.60;96.70;;;;;;5053170;28;20025;-80
2023/01/09 07:45:53;;;;;;;4.10;1.52;;;8.60;96.80;;;;;;5039396;28;20027;-81
2023/01/09 07:48:18;;;;;;;8.23;2.10;;;8.60;96.90;;;;;;5039730;28;20093;-78
2023/01/09 07:50:44;;;;;;;7.55;2.33;;;8.60;97.00;;;;;;5053843;28;20038;-78
2023/01/09 07:53:13;;;;;;;7.72;2.20;;;8.60;97.10;;;;;;5048647;28;20032;-77
2023/01/09 07:55:40;;;;;;;9.45;2.55;;;8.60;97.10;;;;;;5030009;28;20029;-78
2023/01/09 07:58:06;;;;;;;7.30;1.60;;;8.60;97.00;;;;;;5053762;28;20105;-77
2023/01/09 08:00:32;;;;;;;9.95;2.40;;;8.50;97.10;;;;;;5031538;28;20064;-77
2023/01/09 08:02:57;;;;;;;15.95;7.57;;;8.60;97.20;;;;;;5047951;28;20053;-77
2023/01/09 08:05:24;;;;;;;9.60;2.47;;;8.50;97.20;;;;;;5044925;28;20061;-77
2023/01/09 08:07:50;;;;;;;8.65;2.08;;;8.40;97.40;;;;;;5032576;28;20025;-76
2023/01/09 08:10:18;;;;;;;7.72;2.67;;;8.40;97.60;;;;;;5049648;28;20034;-77
2023/01/09 08:12:48;;;;;;;7.20;2.35;;;8.30;97.70;;;;;;5052814;28;20030;-79
2023/01/09 08:15:14;;;;;;;13.93;3.80;;;8.40;97.70;;;;;;5053288;28;20022;-77
2023/01/09 08:17:42;;;;;;;10.27;2.58;;;8.30;97.80;;;;;;5047757;28;20502;-78
2023/01/09 08:20:15;;;;;;;8.27;2.88;;;8.30;98.00;;;;;;5029487;28;20072;-77
2023/01/09 08:22:42;;;;;;;10.77;2.50;;;8.30;97.80;;;;;;5052588;28;20032;-76
2023/01/09 08:25:09;;;;;;;7.47;2.50;;;8.30;97.60;;;;;;5051765;28;20094;-77
2023/01/09 08:27:34;;;;;;;10.27;3.60;;;8.10;97.30;;;;;;5050275;28;20075;-78
2023/01/09 08:30:00;;;;;;;8.05;3.15;;;8.10;97.50;;;;;;5051016;28;20036;-80
2023/01/09 08:32:26;;;;;;;10.15;3.13;;;8.10;97.50;;;;;;5043313;28;20060;-79
2023/01/09 08:34:52;;;;;;;9.90;3.83;;;8.10;97.90;;;;;;5046670;28;20023;-78
2023/01/09 08:37:18;;;;;;;10.00;3.92;;;8.00;97.80;;;;;;5041553;28;20322;-78
2023/01/09 08:39:44;;;;;;;9.48;3.78;;;8.00;98.10;;;;;;5043999;28;20041;-79
2023/01/09 08:47:39;;;;;;;6.00;2.83;;;7.90;98.70;;;;;;5049220;28;20113;-80
2023/01/09 08:50:05;;;;;;;9.65;3.60;;;7.90;98.80;;;;;;5044973;28;20025;-78
2023/01/09 08:52:32;;;;;;;8.50;3.22;;;7.90;98.80;;;;;;5060771;28;20025;-79
2023/01/09 08:54:57;;;;;;;6.13;3.30;;;8.00;98.70;;;;;;5059950;28;20475;-77
2023/01/09 08:57:23;;;;;;;10.73;3.28;;;8.00;98.70;;;;;;5037445;28;20028;-77
2023/01/09 08:59:48;;;;;;;6.78;3.22;;;8.10;98.60;;;;;;5057877;28;20033;-78
2023/01/09 09:02:14;;;;;;;6.63;3.17;;;8.10;98.50;;;;;;5057689;28;20502;-77
2023/01/09 09:04:40;;;;;;;10.15;4.03;;;8.10;98.60;;;;;;5071016;28;20023;-78
2023/01/09 09:07:06;;;;;;;7.78;3.78;;;8.10;98.40;;;;;;5054925;28;20053;-79
2023/01/09 09:09:31;;;;;;;9.07;3.15;;;7.90;98.60;;;;;;5053473;28;20074;-77
2023/01/09 09:11:57;;;;;;;9.02;3.53;;;8.00;98.70;;;;;;5043085;28;20033;-77
2023/01/09 09:17:09;;;;;;;12.68;4.82;;;8.10;98.60;;;;;;5040587;28;20032;-77
2023/01/09 09:19:34;;;;;;;11.27;5.15;;;8.00;98.60;;;;;;5037803;28;20041;-77
2023/01/09 09:22:00;;;;;;;11.30;5.25;;;8.00;98.70;;;;;;5057785;28;20074;-77
2023/01/09 09:24:26;;;;;;;11.85;4.60;;;8.10;98.80;;;;;;5039553;28;20029;-77
2023/01/09 09:26:51;;;;;;;6.22;3.72;;;8.20;98.80;;;;;;5045638;28;20464;-77
2023/01/09 09:29:17;;;;;;;10.75;4.65;;;8.20;98.70;;;;;;5042778;28;20909;-77
2023/01/09 09:31:42;;;;;;;10.65;5.20;;;8.20;98.50;;;;;;5056232;28;20033;-78
2023/01/09 09:34:09;;;;;;;9.25;4.60;;;8.20;98.60;;;;;;5035238;28;20025;-77
2023/01/09 09:36:35;;;;;;;8.73;5.10;;;8.20;98.60;;;;;;5060559;28;20021;-78
2023/01/09 09:39:01;;;;;;;14.30;4.95;;;8.20;98.70;;;;;;5014952;28;20563;-76
2023/01/09 09:44:52;;;;;;;9.95;4.63;;;8.30;98.50;;;;;;5038383;28;20130;-76
2023/01/09 09:47:49;;;;;;;10.23;3.95;;;8.30;98.40;;;;;;5033504;28;20658;-78
2023/01/09 09:50:27;;;;;;;10.68;4.63;;;8.30;98.50;;;;;;5045865;28;20535;-75
2023/01/09 09:52:59;;;;;;;16.60;5.57;;;8.20;98.40;;;;;;5061503;28;20043;-78
2023/01/09 09:55:37;;;;;;;12.65;4.63;;;8.30;98.50;;;;;;5041797;28;20032;-78
2023/01/09 09:58:17;;;;;;;9.93;3.30;;;8.40;98.40;;;;;;5056567;28;20048;-75
2023/01/09 10:00:42;;;;;;;11.63;4.53;;;8.30;98.40;;;;;;5055917;28;20041;-78
2023/01/09 10:03:28;;;;;;;10.73;4.13;;;8.30;98.50;;;;;;5052327;28;20031;-78
2023/01/09 10:05:57;;;;;;;9.13;3.70;;;8.30;98.70;;;;;;5046917;28;20635;-77
2023/01/09 10:08:41;;;;;;;12.02;4.28;;;8.30;98.80;;;;;;5042920;28;20359;-76
2023/01/09 10:11:16;;;;;;;11.88;4.43;;;8.30;98.90;;;;;;5044744;28;20035;-78
2023/01/09 10:16:39;;;;;;;11.50;3.78;;;8.40;98.90;;;;;;5039852;28;20084;-79
2023/01/09 10:19:22;;;;;;;7.78;2.88;;;8.40;98.80;;;;;;5037389;28;20526;-78
2023/01/09 10:21:56;;;;;;;10.80;4.60;;;8.50;98.80;;;;;;5040105;28;20079;-77
2023/01/09 10:24:49;;;;;;;10.55;4.13;;;8.50;98.90;;;;;;5053971;28;20820;-78
2023/01/09 10:27:54;;;;;;;12.70;5.40;;;8.70;98.70;;;;;;5044655;28;20461;-79
2023/01/09 10:30:26;;;;;;;10.57;5.43;;;8.70;98.70;;;;;;5037138;28;20042;-78
2023/01/09 10:33:20;;;;;;;9.65;5.50;;;8.80;98.70;;;;;;5056151;28;20083;-78
2023/01/09 10:36:20;;;;;;;10.27;4.90;;;8.90;98.50;;;;;;5056350;28;20032;-78
2023/01/09 10:38:49;;;;;;;12.30;4.20;;;8.90;98.40;;;;;;5025598;28;20100;-77
2023/01/09 10:41:37;;;;;;;9.90;4.20;;;8.90;98.30;;;;;;5017413;28;20041;-78
2023/01/09 10:44:37;;;;;;;7.93;3.83;;;8.80;98.10;;;;;;5036184;28;20053;-78
2023/01/09 10:47:15;;;;;;;7.63;3.75;;;8.80;98.10;;;;;;5030543;28;20060;-78
2023/01/09 10:49:41;;;;;;;10.75;3.83;;;8.70;98.00;;;;;;5034997;28;20480;-76
2023/01/09 10:52:12;;;;;;;9.43;4.20;;;8.60;98.20;;;;;;5016147;28;20036;-78
2023/01/09 10:54:59;;;;;;;7.60;3.42;;;8.60;98.40;;;;;;5030792;28;20627;-76
2023/01/09 10:57:43;;;;;;;9.30;4.00;;;8.70;98.40;;;;;;5033846;28;20032;-78
2023/01/09 11:00:23;;;;;;;5.22;3.13;;;8.60;98.60;;;;;;5035042;28;20760;-78
2023/01/09 11:02:49;;;;;;;;;;;8.60;98.70;;;;;;5017906;28;20039;-79
2023/01/09 11:05:21;;;;;;;11.32;4.30;;;8.60;98.50;;;;;;5031369;28;19909;-78
2023/01/09 11:07:54;;;;;;;7.70;3.30;;;8.60;98.60;;;;;;5034791;28;20108;-77
2023/01/09 11:10:20;;;;;;;8.43;3.72;;;8.80;99.10;;;;;;5032022;28;20091;-79
2023/01/09 11:12:46;;;;;;;7.63;2.92;;;9.00;98.80;;;;;;5029287;28;20454;-77
2023/01/09 11:15:14;;;;;;;7.43;3.10;;;9.40;98.40;;;;;;5035937;28;20067;-77
2023/01/09 11:17:44;;;;;;;6.65;2.90;;;9.70;97.30;;;;;;5034246;28;20022;-79
2023/01/09 11:20:24;;;;;;;6.25;2.78;;;9.90;96.80;;;;;;5036417;28;20083;-79
2023/01/09 11:22:51;;;;;;;;;;;10.20;96.60;;;;;;5033655;28;20087;-79
2023/01/09 11:25:19;;;;;;;5.65;1.88;;;10.80;95.70;;;;;;5032618;28;20444;-76
2023/01/09 11:28:05;;;;;;;5.28;2.05;;;11.00;94.10;;;;;;5016036;28;20135;-79
2023/01/09 11:30:35;;;;;;;6.95;1.92;;;10.90;93.60;;;;;;5034555;28;20068;-76
2023/01/09 11:33:17;;;;;;;5.25;1.77;;;10.80;93.50;;;;;;5012385;28;20103;-81
2023/01/09 11:36:13;;;;;;;4.80;1.65;;;10.60;93.40;;;;;;5031446;28;20026;-80
2023/01/09 11:38:52;;;;;;;4.72;1.75;;;10.40;94.50;;;;;;5029324;28;20033;-77
2023/01/09 11:41:24;;;;;;;5.13;1.80;;;10.20;93.90;;;;;;5030692;28;20030;-77
2023/01/09 11:43:52;;;;;;;4.97;1.80;;;10.00;94.50;;;;;;5032897;28;20060;-80
2023/01/09 11:46:33;;;;;;;6.72;2.40;;;9.90;94.90;;;;;;5031685;28;20025;-77
2023/01/09 11:49:00;;;;;;;6.53;2.15;;;9.80;95.00;;;;;;5012794;28;20103;-79
2023/01/09 11:51:28;;;;;;;6.68;1.77;;;9.70;95.40;;;;;;5034208;28;20020;-80
2023/01/09 11:53:57;;;;;;;4.47;1.92;;;9.80;96.00;;;;;;5016230;28;20140;-79
2023/01/09 11:56:23;;;;;;;5.10;1.90;;;10.10;96.00;;;;;;5032123;28;20314;-79
2023/01/09 11:58:49;;;;;;;6.50;2.00;;;10.30;95.50;;;;;;5036243;28;20040;-79
2023/01/09 12:01:34;;;;;;;7.00;1.63;;;10.60;95.00;;;;;;5035835;28;20029;-79
2023/01/09 12:04:44;;;;;;;7.60;2.30;;;10.70;94.20;;;;;;5029377;28;20128;-79
2023/01/09 12:07:37;;;;;;;6.88;1.85;;;10.80;94.00;;;;;;5002162;28;20109;-77
2023/01/09 12:10:24;;;;;;;6.53;2.03;;;10.80;93.80;;;;;;4995361;28;20040;-77
2023/01/09 12:12:59;;;;;;;11.35;2.50;;;10.70;93.60;;;;;;5014368;28;20032;-77
2023/01/09 12:15:49;;;;;;;6.60;2.08;;;10.60;93.70;;;;;;5034320;28;20033;-79
2023/01/09 12:18:44;;;;;;;10.23;2.97;;;10.60;94.10;;;;;;5031432;28;20017;-78
2023/01/09 12:21:22;;;;;;;10.68;2.95;;;10.60;93.80;;;;;;5009693;28;20411;-77
2023/01/09 12:24:14;;;;;;;16.42;2.55;;;10.60;94.20;;;;;;5031078;28;20053;-79
2023/01/09 12:27:10;;;;;;;10.65;2.67;;;10.60;94.00;;;;;;5034422;28;20116;-78
2023/01/09 12:29:42;;;;;;;8.80;2.80;;;10.60;94.30;;;;;;5031011;28;20025;-78
2023/01/09 12:32:35;;;;;;;8.93;2.28;;;10.70;94.30;;;;;;5033985;28;20030;-79
2023/01/09 12:35:09;;;;;;;11.65;2.50;;;10.90;94.10;;;;;;5023310;28;20090;-78
2023/01/09 12:37:57;;;;;;;10.48;2.33;;;11.00;93.70;;;;;;5016993;28;20029;-77
2023/01/09 12:40:44;;;;;;;13.95;2.83;;;10.90;93.60;;;;;;5033381;28;20108;-79
2023/01/09 12:43:53;;;;;;;9.85;2.95;;;10.80;93.30;;;;;;5033588;28;20074;-78
2023/01/09 12:46:21;;;;;;;13.27;2.88;;;10.60;93.80;;;;;;5013164;28;20593;-78
2023/01/09 12:48:59;;;;;;;14.70;3.25;;;10.50;94.20;;;;;;5012124;28;20025;-79
2023/01/09 12:51:51;;;;;;;10.65;2.08;;;10.40;94.50;;;;;;5031890;28;20030;-78
2023/01/09 12:54:29;;;;;;;11.55;2.03;;;10.40;94.40;;;;;;5029459;28;20105;-79
2023/01/09 12:57:02;;;;;;;11.35;4.03;;;10.50;94.40;;;;;;5032712;28;20044;-78
2023/01/09 12:59:40;;;;;;;13.90;3.47;;;10.50;94.40;;;;;;5030697;28;20170;-78
2023/01/09 13:02:27;;;;;;;13.52;4.03;;;10.40;94.40;;;;;;5016238;28;20466;-79
2023/01/09 13:05:09;;;;;;;17.27;3.83;;;10.40;94.70;;;;;;5033061;28;20021;-79
2023/01/09 13:07:44;;;;;;;11.02;3.30;;;10.30;94.80;;;;;;5032107;28;20025;-79
2023/01/09 13:10:27;;;;;;;11.65;2.90;;;10.30;95.00;;;;;;5034131;28;20029;-79
2023/01/09 13:12:54;;;;;;;15.75;2.90;;;10.40;95.40;;;;;;5031641;28;20027;-78
2023/01/09 13:15:32;;;;;;;15.55;3.20;;;10.40;95.30;;;;;;5030245;28;20488;-79
2023/01/09 13:18:15;;;;;;;9.55;2.65;;;10.30;95.00;;;;;;5034360;28;20033;-75
2023/01/09 13:20:49;;;;;;;13.55;3.13;;;10.30;95.00;;;;;;5033270;28;20123;-77
2023/01/09 13:23:27;;;;;;;13.60;3.58;;;10.40;95.00;;;;;;5033713;28;20033;-77
2023/01/09 13:25:56;;;;;;;16.92;2.78;;;10.40;94.70;;;;;;5031167;28;20048;-77
2023/01/09 13:28:41;;;;;;;10.25;2.28;;;10.40;94.70;;;;;;5020193;28;20025;-78
2023/01/09 13:31:28;;;;;;;11.43;1.77;;;10.30;94.60;;;;;;5033172;28;20167;-76